Stanitsa Kanevskaya, Russia
Current Conditions -  °F | °C
As of 6:00 PM on Thursday 23 Oct 2014 (Local Time) from URKK Reporting Station
Clear Clear  
Wind Chill: 61°   Ceiling: Unl
Heat Index: 61°   Visibility: 6mi
Dew Point: 46°   Wind: 9mph
Humidity: 59%   Direction: 50°NE
Pressure: 29.88"   Gusts: NA
Location:  46.07°N, 38.97°E
Report Text: URKK 231500Z 05004MPS CAVOK 16/08 Q1012 NOSIG RMK QFE756 SC070
Loading
Personal Weather Stations






























Interactive Weather Map
Tropical Storm Tracking
New forecast layout! Learn more

10-Day Weather Forecast

Advertisements
Track Severe Weather on mobile